sensor_id;sensor_type;location;lat;lon;timestamp;P1;durP1;ratioP1;P2;durP2;ratioP2
15130;SDS011;7666;50.920;4.628;2023-02-11T00:02:32;13.67;;;6.60;;
15130;SDS011;7666;50.920;4.628;2023-02-11T00:05:18;17.30;;;7.10;;
15130;SDS011;7666;50.920;4.628;2023-02-11T00:08:04;14.73;;;6.73;;
15130;SDS011;7666;50.920;4.628;2023-02-11T00:10:51;16.07;;;6.77;;
15130;SDS011;7666;50.920;4.628;2023-02-11T00:13:41;13.70;;;6.47;;
15130;SDS011;7666;50.920;4.628;2023-02-11T00:16:29;18.37;;;6.50;;
15130;SDS011;7666;50.920;4.628;2023-02-11T00:19:16;9.70;;;6.20;;
15130;SDS011;7666;50.920;4.628;2023-02-11T00:22:02;15.40;;;6.30;;
15130;SDS011;7666;50.920;4.628;2023-02-11T00:24:48;14.07;;;6.93;;
15130;SDS011;7666;50.920;4.628;2023-02-11T00:27:35;12.43;;;7.00;;
15130;SDS011;7666;50.920;4.628;2023-02-11T00:30:22;15.70;;;6.37;;
15130;SDS011;7666;50.920;4.628;2023-02-11T00:33:08;13.93;;;6.23;;
15130;SDS011;7666;50.920;4.628;2023-02-11T00:35:54;13.03;;;6.33;;
15130;SDS011;7666;50.920;4.628;2023-02-11T00:38:43;13.00;;;6.50;;
15130;SDS011;7666;50.920;4.628;2023-02-11T00:41:30;13.77;;;7.10;;
15130;SDS011;7666;50.920;4.628;2023-02-11T00:44:16;11.97;;;6.90;;
15130;SDS011;7666;50.920;4.628;2023-02-11T00:47:02;12.93;;;6.20;;
15130;SDS011;7666;50.920;4.628;2023-02-11T00:49:48;16.83;;;7.27;;
15130;SDS011;7666;50.920;4.628;2023-02-11T00:52:34;13.43;;;7.03;;
15130;SDS011;7666;50.920;4.628;2023-02-11T00:55:20;15.13;;;6.57;;
15130;SDS011;7666;50.920;4.628;2023-02-11T00:58:06;15.00;;;6.20;;
15130;SDS011;7666;50.920;4.628;2023-02-11T01:00:53;15.23;;;6.87;;
15130;SDS011;7666;50.920;4.628;2023-02-11T01:03:40;13.67;;;6.60;;
15130;SDS011;7666;50.920;4.628;2023-02-11T01:06:26;13.97;;;6.53;;
15130;SDS011;7666;50.920;4.628;2023-02-11T01:09:11;13.17;;;8.00;;
15130;SDS011;7666;50.920;4.628;2023-02-11T01:11:57;13.77;;;7.03;;
15130;SDS011;7666;50.920;4.628;2023-02-11T01:14:43;15.40;;;7.73;;
15130;SDS011;7666;50.920;4.628;2023-02-11T01:17:29;15.37;;;7.67;;
15130;SDS011;7666;50.920;4.628;2023-02-11T01:20:17;19.90;;;8.50;;
15130;SDS011;7666;50.920;4.628;2023-02-11T01:23:07;15.47;;;7.23;;
15130;SDS011;7666;50.920;4.628;2023-02-11T01:25:53;16.47;;;6.80;;
15130;SDS011;7666;50.920;4.628;2023-02-11T01:28:40;16.33;;;6.73;;
15130;SDS011;7666;50.920;4.628;2023-02-11T01:31:26;15.03;;;6.97;;
15130;SDS011;7666;50.920;4.628;2023-02-11T01:34:13;14.40;;;6.80;;
15130;SDS011;7666;50.920;4.628;2023-02-11T01:36:59;19.67;;;6.90;;
15130;SDS011;7666;50.920;4.628;2023-02-11T01:39:45;19.10;;;7.77;;
15130;SDS011;7666;50.920;4.628;2023-02-11T01:42:31;15.27;;;7.23;;
15130;SDS011;7666;50.920;4.628;2023-02-11T01:48:43;12.63;;;6.93;;
15130;SDS011;7666;50.920;4.628;2023-02-11T01:51:37;11.93;;;7.27;;
15130;SDS011;7666;50.920;4.628;2023-02-11T01:54:37;17.93;;;7.33;;
15130;SDS011;7666;50.920;4.628;2023-02-11T01:57:48;13.60;;;7.07;;
15130;SDS011;7666;50.920;4.628;2023-02-11T02:00:37;12.53;;;6.73;;
15130;SDS011;7666;50.920;4.628;2023-02-11T02:03:24;14.47;;;7.33;;
15130;SDS011;7666;50.920;4.628;2023-02-11T02:06:13;16.97;;;7.53;;
15130;SDS011;7666;50.920;4.628;2023-02-11T02:09:08;17.20;;;7.50;;
15130;SDS011;7666;50.920;4.628;2023-02-11T02:12:00;9.87;;;6.80;;
15130;SDS011;7666;50.920;4.628;2023-02-11T02:14:46;15.83;;;7.53;;
15130;SDS011;7666;50.920;4.628;2023-02-11T02:17:36;14.43;;;7.00;;
15130;SDS011;7666;50.920;4.628;2023-02-11T02:30:03;13.33;;;7.30;;
15130;SDS011;7666;50.920;4.628;2023-02-11T02:36:33;21.73;;;7.80;;
15130;SDS011;7666;50.920;4.628;2023-02-11T02:39:28;16.07;;;7.33;;
15130;SDS011;7666;50.920;4.628;2023-02-11T02:42:18;13.20;;;7.23;;
15130;SDS011;7666;50.920;4.628;2023-02-11T02:45:06;15.63;;;7.80;;
15130;SDS011;7666;50.920;4.628;2023-02-11T02:47:53;18.23;;;7.70;;
15130;SDS011;7666;50.920;4.628;2023-02-11T02:50:39;11.90;;;7.17;;
15130;SDS011;7666;50.920;4.628;2023-02-11T02:53:30;18.60;;;7.57;;
15130;SDS011;7666;50.920;4.628;2023-02-11T02:56:37;12.03;;;6.83;;
15130;SDS011;7666;50.920;4.628;2023-02-11T03:06:16;13.23;;;6.90;;
15130;SDS011;7666;50.920;4.628;2023-02-11T03:09:14;14.53;;;8.03;;
15130;SDS011;7666;50.920;4.628;2023-02-11T03:12:13;19.63;;;7.67;;
15130;SDS011;7666;50.920;4.628;2023-02-11T03:15:01;17.17;;;7.67;;
15130;SDS011;7666;50.920;4.628;2023-02-11T03:17:50;15.40;;;6.47;;
15130;SDS011;7666;50.920;4.628;2023-02-11T03:20:39;16.10;;;7.40;;
15130;SDS011;7666;50.920;4.628;2023-02-11T03:23:33;14.27;;;6.90;;
15130;SDS011;7666;50.920;4.628;2023-02-11T03:26:45;14.47;;;6.63;;
15130;SDS011;7666;50.920;4.628;2023-02-11T03:29:43;11.77;;;6.63;;
15130;SDS011;7666;50.920;4.628;2023-02-11T03:32:47;13.73;;;6.80;;
15130;SDS011;7666;50.920;4.628;2023-02-11T03:36:06;15.23;;;7.33;;
15130;SDS011;7666;50.920;4.628;2023-02-11T03:38:56;15.00;;;7.50;;
15130;SDS011;7666;50.920;4.628;2023-02-11T03:41:46;15.83;;;7.23;;
15130;SDS011;7666;50.920;4.628;2023-02-11T03:44:35;16.33;;;7.50;;
15130;SDS011;7666;50.920;4.628;2023-02-11T03:47:26;14.40;;;7.53;;
15130;SDS011;7666;50.920;4.628;2023-02-11T03:50:14;13.77;;;7.83;;
15130;SDS011;7666;50.920;4.628;2023-02-11T03:53:02;14.17;;;7.17;;
15130;SDS011;7666;50.920;4.628;2023-02-11T03:55:50;15.93;;;7.47;;
15130;SDS011;7666;50.920;4.628;2023-02-11T03:58:39;16.67;;;7.77;;
15130;SDS011;7666;50.920;4.628;2023-02-11T04:01:25;13.23;;;8.97;;
15130;SDS011;7666;50.920;4.628;2023-02-11T04:04:11;14.37;;;8.20;;
15130;SDS011;7666;50.920;4.628;2023-02-11T04:06:57;16.37;;;8.57;;
15130;SDS011;7666;50.920;4.628;2023-02-11T04:09:43;19.77;;;9.30;;
15130;SDS011;7666;50.920;4.628;2023-02-11T04:12:29;14.33;;;8.73;;
15130;SDS011;7666;50.920;4.628;2023-02-11T04:15:15;15.63;;;9.10;;
15130;SDS011;7666;50.920;4.628;2023-02-11T04:18:01;17.27;;;9.03;;
15130;SDS011;7666;50.920;4.628;2023-02-11T04:20:48;15.70;;;9.27;;
15130;SDS011;7666;50.920;4.628;2023-02-11T04:23:35;15.80;;;8.77;;
15130;SDS011;7666;50.920;4.628;2023-02-11T04:26:21;17.50;;;9.53;;
15130;SDS011;7666;50.920;4.628;2023-02-11T04:29:08;15.23;;;8.93;;
15130;SDS011;7666;50.920;4.628;2023-02-11T04:31:53;17.10;;;9.17;;
15130;SDS011;7666;50.920;4.628;2023-02-11T04:34:40;15.97;;;9.70;;
15130;SDS011;7666;50.920;4.628;2023-02-11T04:37:26;17.40;;;9.73;;
15130;SDS011;7666;50.920;4.628;2023-02-11T04:40:12;17.07;;;9.27;;
15130;SDS011;7666;50.920;4.628;2023-02-11T04:42:58;17.20;;;10.07;;
15130;SDS011;7666;50.920;4.628;2023-02-11T04:45:44;17.63;;;10.63;;
15130;SDS011;7666;50.920;4.628;2023-02-11T04:48:30;19.10;;;10.23;;
15130;SDS011;7666;50.920;4.628;2023-02-11T04:51:16;19.83;;;10.23;;
15130;SDS011;7666;50.920;4.628;2023-02-11T04:54:02;18.50;;;10.80;;
15130;SDS011;7666;50.920;4.628;2023-02-11T04:56:48;17.93;;;11.03;;
15130;SDS011;7666;50.920;4.628;2023-02-11T04:59:35;22.50;;;11.87;;
15130;SDS011;7666;50.920;4.628;2023-02-11T05:02:21;21.70;;;11.33;;
15130;SDS011;7666;50.920;4.628;2023-02-11T05:05:07;23.93;;;11.57;;
15130;SDS011;7666;50.920;4.628;2023-02-11T05:07:53;17.57;;;11.40;;
15130;SDS011;7666;50.920;4.628;2023-02-11T05:10:39;15.83;;;11.10;;
15130;SDS011;7666;50.920;4.628;2023-02-11T05:13:25;21.27;;;11.47;;
15130;SDS011;7666;50.920;4.628;2023-02-11T05:16:12;19.87;;;11.07;;
15130;SDS011;7666;50.920;4.628;2023-02-11T05:19:00;19.00;;;12.07;;
15130;SDS011;7666;50.920;4.628;2023-02-11T05:21:46;16.73;;;11.50;;
15130;SDS011;7666;50.920;4.628;2023-02-11T05:24:31;21.43;;;12.50;;
15130;SDS011;7666;50.920;4.628;2023-02-11T05:27:17;24.40;;;12.77;;
15130;SDS011;7666;50.920;4.628;2023-02-11T05:30:04;20.83;;;13.50;;
15130;SDS011;7666;50.920;4.628;2023-02-11T05:32:50;23.57;;;14.07;;
15130;SDS011;7666;50.920;4.628;2023-02-11T05:35:36;22.90;;;13.50;;
15130;SDS011;7666;50.920;4.628;2023-02-11T05:38:22;22.43;;;13.27;;
15130;SDS011;7666;50.920;4.628;2023-02-11T05:41:09;24.90;;;14.20;;
15130;SDS011;7666;50.920;4.628;2023-02-11T05:43:55;20.40;;;14.27;;
15130;SDS011;7666;50.920;4.628;2023-02-11T05:46:41;17.37;;;12.60;;
15130;SDS011;7666;50.920;4.628;2023-02-11T05:49:27;25.77;;;14.40;;
15130;SDS011;7666;50.920;4.628;2023-02-11T05:52:13;22.57;;;14.13;;
15130;SDS011;7666;50.920;4.628;2023-02-11T05:54:59;24.80;;;16.03;;
15130;SDS011;7666;50.920;4.628;2023-02-11T05:57:45;21.07;;;15.07;;
15130;SDS011;7666;50.920;4.628;2023-02-11T06:00:31;24.50;;;15.30;;
15130;SDS011;7666;50.920;4.628;2023-02-11T06:03:17;22.83;;;15.10;;
15130;SDS011;7666;50.920;4.628;2023-02-11T06:06:04;23.47;;;15.30;;
15130;SDS011;7666;50.920;4.628;2023-02-11T06:08:53;26.33;;;16.17;;
15130;SDS011;7666;50.920;4.628;2023-02-11T06:11:40;24.60;;;15.87;;
15130;SDS011;7666;50.920;4.628;2023-02-11T06:14:26;23.43;;;15.97;;
15130;SDS011;7666;50.920;4.628;2023-02-11T06:17:12;28.07;;;15.33;;
15130;SDS011;7666;50.920;4.628;2023-02-11T06:19:58;23.53;;;16.57;;
15130;SDS011;7666;50.920;4.628;2023-02-11T06:22:45;26.03;;;17.13;;
15130;SDS011;7666;50.920;4.628;2023-02-11T06:25:31;26.80;;;16.43;;
15130;SDS011;7666;50.920;4.628;2023-02-11T06:28:17;21.40;;;16.03;;
15130;SDS011;7666;50.920;4.628;2023-02-11T06:31:04;25.70;;;16.27;;
15130;SDS011;7666;50.920;4.628;2023-02-11T06:33:51;26.33;;;16.30;;
15130;SDS011;7666;50.920;4.628;2023-02-11T06:36:39;25.80;;;15.93;;
15130;SDS011;7666;50.920;4.628;2023-02-11T06:39:25;25.97;;;17.50;;
15130;SDS011;7666;50.920;4.628;2023-02-11T06:42:11;25.23;;;16.93;;
15130;SDS011;7666;50.920;4.628;2023-02-11T06:44:57;24.87;;;16.60;;
15130;SDS011;7666;50.920;4.628;2023-02-11T06:47:43;27.03;;;18.03;;
15130;SDS011;7666;50.920;4.628;2023-02-11T06:50:29;26.40;;;17.23;;
15130;SDS011;7666;50.920;4.628;2023-02-11T06:53:15;23.33;;;16.83;;
15130;SDS011;7666;50.920;4.628;2023-02-11T06:56:02;28.83;;;17.23;;
15130;SDS011;7666;50.920;4.628;2023-02-11T06:58:53;23.27;;;17.83;;
15130;SDS011;7666;50.920;4.628;2023-02-11T07:01:39;30.87;;;17.90;;
15130;SDS011;7666;50.920;4.628;2023-02-11T07:04:25;27.97;;;18.83;;
15130;SDS011;7666;50.920;4.628;2023-02-11T07:07:11;32.60;;;19.40;;
15130;SDS011;7666;50.920;4.628;2023-02-11T07:09:57;28.40;;;19.00;;
15130;SDS011;7666;50.920;4.628;2023-02-11T07:12:43;29.03;;;19.17;;
15130;SDS011;7666;50.920;4.628;2023-02-11T07:15:29;32.97;;;19.90;;
15130;SDS011;7666;50.920;4.628;2023-02-11T07:18:15;30.37;;;19.53;;
15130;SDS011;7666;50.920;4.628;2023-02-11T07:21:05;31.27;;;20.40;;
15130;SDS011;7666;50.920;4.628;2023-02-11T07:23:52;28.87;;;20.40;;
15130;SDS011;7666;50.920;4.628;2023-02-11T07:26:38;32.23;;;21.73;;
15130;SDS011;7666;50.920;4.628;2023-02-11T07:29:25;33.20;;;22.47;;
15130;SDS011;7666;50.920;4.628;2023-02-11T07:32:11;41.37;;;23.33;;
15130;SDS011;7666;50.920;4.628;2023-02-11T07:35:00;38.27;;;22.43;;
15130;SDS011;7666;50.920;4.628;2023-02-11T07:37:46;35.13;;;23.17;;
15130;SDS011;7666;50.920;4.628;2023-02-11T07:40:32;34.43;;;22.27;;
15130;SDS011;7666;50.920;4.628;2023-02-11T07:43:18;34.23;;;22.80;;
15130;SDS011;7666;50.920;4.628;2023-02-11T07:46:08;36.43;;;23.13;;
15130;SDS011;7666;50.920;4.628;2023-02-11T07:48:59;35.00;;;23.27;;
15130;SDS011;7666;50.920;4.628;2023-02-11T07:51:45;35.77;;;23.47;;
15130;SDS011;7666;50.920;4.628;2023-02-11T07:54:32;36.20;;;25.10;;
15130;SDS011;7666;50.920;4.628;2023-02-11T07:57:18;38.73;;;25.10;;
15130;SDS011;7666;50.920;4.628;2023-02-11T08:00:04;35.83;;;24.17;;
15130;SDS011;7666;50.920;4.628;2023-02-11T08:02:50;35.40;;;24.43;;
15130;SDS011;7666;50.920;4.628;2023-02-11T08:05:36;33.83;;;24.20;;
15130;SDS011;7666;50.920;4.628;2023-02-11T08:08:26;34.17;;;23.93;;
15130;SDS011;7666;50.920;4.628;2023-02-11T08:14:05;34.43;;;24.47;;
15130;SDS011;7666;50.920;4.628;2023-02-11T08:16:51;36.87;;;25.40;;
15130;SDS011;7666;50.920;4.628;2023-02-11T08:19:37;43.13;;;25.67;;
15130;SDS011;7666;50.920;4.628;2023-02-11T08:22:24;43.43;;;25.87;;
15130;SDS011;7666;50.920;4.628;2023-02-11T08:25:09;41.30;;;25.10;;
15130;SDS011;7666;50.920;4.628;2023-02-11T08:27:55;40.03;;;25.57;;
15130;SDS011;7666;50.920;4.628;2023-02-11T08:30:43;34.77;;;23.00;;
15130;SDS011;7666;50.920;4.628;2023-02-11T08:33:28;36.90;;;24.73;;
15130;SDS011;7666;50.920;4.628;2023-02-11T08:36:19;37.63;;;25.30;;
15130;SDS011;7666;50.920;4.628;2023-02-11T08:39:07;35.80;;;24.67;;
15130;SDS011;7666;50.920;4.628;2023-02-11T08:41:56;31.17;;;22.90;;
15130;SDS011;7666;50.920;4.628;2023-02-11T08:44:42;35.83;;;24.67;;
15130;SDS011;7666;50.920;4.628;2023-02-11T08:47:28;35.80;;;22.90;;
15130;SDS011;7666;50.920;4.628;2023-02-11T08:50:15;31.20;;;23.80;;
15130;SDS011;7666;50.920;4.628;2023-02-11T08:53:01;38.90;;;24.77;;
15130;SDS011;7666;50.920;4.628;2023-02-11T08:55:51;39.83;;;24.90;;
15130;SDS011;7666;50.920;4.628;2023-02-11T08:58:38;38.80;;;25.57;;
15130;SDS011;7666;50.920;4.628;2023-02-11T09:01:26;37.23;;;25.50;;
15130;SDS011;7666;50.920;4.628;2023-02-11T09:04:13;39.93;;;24.23;;
15130;SDS011;7666;50.920;4.628;2023-02-11T09:07:01;34.40;;;24.63;;
15130;SDS011;7666;50.920;4.628;2023-02-11T09:09:47;42.77;;;26.63;;
15130;SDS011;7666;50.920;4.628;2023-02-11T09:12:33;37.53;;;23.93;;
15130;SDS011;7666;50.920;4.628;2023-02-11T09:15:20;41.93;;;27.73;;
15130;SDS011;7666;50.920;4.628;2023-02-11T09:18:06;42.00;;;26.70;;
15130;SDS011;7666;50.920;4.628;2023-02-11T09:20:51;40.13;;;26.07;;
15130;SDS011;7666;50.920;4.628;2023-02-11T09:23:38;42.87;;;27.43;;
15130;SDS011;7666;50.920;4.628;2023-02-11T09:26:29;45.90;;;27.90;;
15130;SDS011;7666;50.920;4.628;2023-02-11T09:29:17;41.40;;;27.47;;
15130;SDS011;7666;50.920;4.628;2023-02-11T09:32:03;40.53;;;26.77;;
15130;SDS011;7666;50.920;4.628;2023-02-11T09:34:49;43.03;;;25.93;;
15130;SDS011;7666;50.920;4.628;2023-02-11T09:37:35;42.63;;;27.77;;
15130;SDS011;7666;50.920;4.628;2023-02-11T09:40:21;42.90;;;27.70;;
15130;SDS011;7666;50.920;4.628;2023-02-11T09:43:13;44.33;;;29.03;;
15130;SDS011;7666;50.920;4.628;2023-02-11T09:46:05;47.47;;;29.10;;
15130;SDS011;7666;50.920;4.628;2023-02-11T09:48:52;43.27;;;27.67;;
15130;SDS011;7666;50.920;4.628;2023-02-11T09:51:47;46.77;;;29.30;;
15130;SDS011;7666;50.920;4.628;2023-02-11T09:54:40;48.90;;;30.10;;
15130;SDS011;7666;50.920;4.628;2023-02-11T09:57:49;48.87;;;28.83;;
15130;SDS011;7666;50.920;4.628;2023-02-11T10:00:39;48.27;;;30.80;;
15130;SDS011;7666;50.920;4.628;2023-02-11T10:06:44;47.50;;;30.73;;
15130;SDS011;7666;50.920;4.628;2023-02-11T10:16:35;48.90;;;30.97;;
15130;SDS011;7666;50.920;4.628;2023-02-11T10:19:32;51.33;;;31.07;;
15130;SDS011;7666;50.920;4.628;2023-02-11T10:22:36;48.23;;;30.63;;
15130;SDS011;7666;50.920;4.628;2023-02-11T10:25:43;53.73;;;30.87;;
15130;SDS011;7666;50.920;4.628;2023-02-11T10:28:33;50.63;;;30.53;;
15130;SDS011;7666;50.920;4.628;2023-02-11T10:34:10;44.33;;;28.77;;
15130;SDS011;7666;50.920;4.628;2023-02-11T10:36:59;47.70;;;29.77;;
15130;SDS011;7666;50.920;4.628;2023-02-11T10:39:45;48.87;;;31.10;;
15130;SDS011;7666;50.920;4.628;2023-02-11T10:42:31;47.47;;;30.03;;
15130;SDS011;7666;50.920;4.628;2023-02-11T10:45:35;50.33;;;29.53;;
15130;SDS011;7666;50.920;4.628;2023-02-11T10:48:45;46.40;;;29.83;;
15130;SDS011;7666;50.920;4.628;2023-02-11T10:51:33;48.17;;;30.47;;
15130;SDS011;7666;50.920;4.628;2023-02-11T10:54:19;47.07;;;29.20;;
15130;SDS011;7666;50.920;4.628;2023-02-11T10:57:11;49.37;;;29.97;;
15130;SDS011;7666;50.920;4.628;2023-02-11T11:00:22;45.80;;;28.83;;
15130;SDS011;7666;50.920;4.628;2023-02-11T11:03:18;49.17;;;30.13;;
15130;SDS011;7666;50.920;4.628;2023-02-11T11:06:08;53.87;;;30.90;;
15130;SDS011;7666;50.920;4.628;2023-02-11T11:08:54;46.23;;;28.90;;
15130;SDS011;7666;50.920;4.628;2023-02-11T11:11:49;47.33;;;30.30;;
15130;SDS011;7666;50.920;4.628;2023-02-11T11:14:37;46.50;;;29.50;;
15130;SDS011;7666;50.920;4.628;2023-02-11T11:17:23;47.77;;;29.47;;
15130;SDS011;7666;50.920;4.628;2023-02-11T11:20:21;52.13;;;30.87;;
15130;SDS011;7666;50.920;4.628;2023-02-11T11:23:17;46.40;;;29.27;;
15130;SDS011;7666;50.920;4.628;2023-02-11T11:26:08;45.60;;;30.73;;
15130;SDS011;7666;50.920;4.628;2023-02-11T11:29:00;45.90;;;30.77;;
15130;SDS011;7666;50.920;4.628;2023-02-11T11:31:58;48.80;;;30.07;;
15130;SDS011;7666;50.920;4.628;2023-02-11T11:35:06;46.47;;;29.97;;
15130;SDS011;7666;50.920;4.628;2023-02-11T11:38:05;44.47;;;30.00;;
15130;SDS011;7666;50.920;4.628;2023-02-11T11:44:22;48.20;;;30.33;;
15130;SDS011;7666;50.920;4.628;2023-02-11T11:47:21;45.80;;;28.10;;
15130;SDS011;7666;50.920;4.628;2023-02-11T11:56:59;42.63;;;28.87;;
15130;SDS011;7666;50.920;4.628;2023-02-11T11:59:49;46.20;;;28.53;;
15130;SDS011;7666;50.920;4.628;2023-02-11T12:05:31;43.03;;;28.37;;
15130;SDS011;7666;50.920;4.628;2023-02-11T12:14:23;43.80;;;28.87;;
15130;SDS011;7666;50.920;4.628;2023-02-11T12:27:01;49.30;;;29.73;;
15130;SDS011;7666;50.920;4.628;2023-02-11T12:36:52;46.77;;;30.03;;
15130;SDS011;7666;50.920;4.628;2023-02-11T12:46:15;49.83;;;30.33;;
15130;SDS011;7666;50.920;4.628;2023-02-11T12:52:21;45.80;;;30.27;;
15130;SDS011;7666;50.920;4.628;2023-02-11T12:55:21;44.43;;;29.07;;
15130;SDS011;7666;50.920;4.628;2023-02-11T12:58:12;45.17;;;29.50;;
15130;SDS011;7666;50.920;4.628;2023-02-11T13:01:22;45.57;;;29.73;;
15130;SDS011;7666;50.920;4.628;2023-02-11T13:07:10;48.90;;;31.20;;
15130;SDS011;7666;50.920;4.628;2023-02-11T13:16:20;43.57;;;29.20;;
15130;SDS011;7666;50.920;4.628;2023-02-11T13:22:18;45.00;;;30.03;;
15130;SDS011;7666;50.920;4.628;2023-02-11T13:28:35;49.13;;;31.43;;
15130;SDS011;7666;50.920;4.628;2023-02-11T13:31:32;42.33;;;29.17;;
15130;SDS011;7666;50.920;4.628;2023-02-11T13:34:26;40.87;;;29.47;;
15130;SDS011;7666;50.920;4.628;2023-02-11T13:37:33;51.03;;;30.97;;
15130;SDS011;7666;50.920;4.628;2023-02-11T13:40:22;49.07;;;30.23;;
15130;SDS011;7666;50.920;4.628;2023-02-11T13:43:19;47.10;;;30.40;;
15130;SDS011;7666;50.920;4.628;2023-02-11T13:46:09;47.47;;;29.93;;
15130;SDS011;7666;50.920;4.628;2023-02-11T13:48:56;50.90;;;31.17;;
15130;SDS011;7666;50.920;4.628;2023-02-11T13:51:42;47.00;;;30.73;;
15130;SDS011;7666;50.920;4.628;2023-02-11T13:54:30;45.90;;;30.37;;
15130;SDS011;7666;50.920;4.628;2023-02-11T13:57:29;45.37;;;30.90;;
15130;SDS011;7666;50.920;4.628;2023-02-11T14:06:26;44.10;;;31.23;;
15130;SDS011;7666;50.920;4.628;2023-02-11T14:09:32;45.73;;;31.33;;
15130;SDS011;7666;50.920;4.628;2023-02-11T14:12:22;46.00;;;30.63;;
15130;SDS011;7666;50.920;4.628;2023-02-11T14:15:17;46.77;;;30.90;;
15130;SDS011;7666;50.920;4.628;2023-02-11T14:21:32;47.70;;;31.23;;
15130;SDS011;7666;50.920;4.628;2023-02-11T14:31:09;46.63;;;31.63;;
15130;SDS011;7666;50.920;4.628;2023-02-11T14:33:52;45.97;;;31.93;;
15130;SDS011;7666;50.920;4.628;2023-02-11T14:37:01;50.27;;;33.07;;
15130;SDS011;7666;50.920;4.628;2023-02-11T14:43:02;47.83;;;32.03;;
15130;SDS011;7666;50.920;4.628;2023-02-11T14:45:57;45.77;;;31.33;;
15130;SDS011;7666;50.920;4.628;2023-02-11T14:48:46;48.67;;;32.87;;
15130;SDS011;7666;50.920;4.628;2023-02-11T14:51:35;47.37;;;32.70;;
15130;SDS011;7666;50.920;4.628;2023-02-11T14:54:25;55.00;;;34.17;;
15130;SDS011;7666;50.920;4.628;2023-02-11T14:57:16;53.20;;;33.43;;
15130;SDS011;7666;50.920;4.628;2023-02-11T15:00:06;52.00;;;33.83;;
15130;SDS011;7666;50.920;4.628;2023-02-11T15:03:01;44.67;;;32.53;;
15130;SDS011;7666;50.920;4.628;2023-02-11T15:05:47;48.30;;;32.60;;
15130;SDS011;7666;50.920;4.628;2023-02-11T15:08:48;49.23;;;31.33;;
15130;SDS011;7666;50.920;4.628;2023-02-11T15:11:38;49.10;;;32.67;;
15130;SDS011;7666;50.920;4.628;2023-02-11T15:14:28;42.67;;;32.13;;
15130;SDS011;7666;50.920;4.628;2023-02-11T15:17:18;47.00;;;31.97;;
15130;SDS011;7666;50.920;4.628;2023-02-11T15:20:12;47.83;;;32.13;;
15130;SDS011;7666;50.920;4.628;2023-02-11T15:23:06;46.63;;;32.30;;
15130;SDS011;7666;50.920;4.628;2023-02-11T15:25:59;51.57;;;33.53;;
15130;SDS011;7666;50.920;4.628;2023-02-11T15:28:49;46.63;;;33.03;;
15130;SDS011;7666;50.920;4.628;2023-02-11T15:31:40;45.80;;;31.67;;
15130;SDS011;7666;50.920;4.628;2023-02-11T15:34:27;45.10;;;31.50;;
15130;SDS011;7666;50.920;4.628;2023-02-11T15:37:23;46.83;;;33.10;;
15130;SDS011;7666;50.920;4.628;2023-02-11T15:40:18;42.67;;;31.00;;
15130;SDS011;7666;50.920;4.628;2023-02-11T15:43:12;44.87;;;32.20;;
15130;SDS011;7666;50.920;4.628;2023-02-11T15:45:58;47.20;;;32.80;;
15130;SDS011;7666;50.920;4.628;2023-02-11T15:51:38;42.60;;;31.10;;
15130;SDS011;7666;50.920;4.628;2023-02-11T15:54:27;40.83;;;31.10;;
15130;SDS011;7666;50.920;4.628;2023-02-11T15:57:15;44.70;;;32.20;;
15130;SDS011;7666;50.920;4.628;2023-02-11T16:00:02;46.90;;;32.03;;
15130;SDS011;7666;50.920;4.628;2023-02-11T16:02:51;41.70;;;30.83;;
15130;SDS011;7666;50.920;4.628;2023-02-11T16:05:38;46.60;;;32.33;;
15130;SDS011;7666;50.920;4.628;2023-02-11T16:08:26;44.70;;;31.60;;
15130;SDS011;7666;50.920;4.628;2023-02-11T16:11:17;44.03;;;33.03;;
15130;SDS011;7666;50.920;4.628;2023-02-11T16:17:12;43.03;;;32.27;;
15130;SDS011;7666;50.920;4.628;2023-02-11T16:20:18;41.80;;;30.97;;
15130;SDS011;7666;50.920;4.628;2023-02-11T16:23:05;42.30;;;30.40;;
15130;SDS011;7666;50.920;4.628;2023-02-11T16:26:02;43.23;;;31.20;;
15130;SDS011;7666;50.920;4.628;2023-02-11T16:32:07;39.03;;;30.27;;
15130;SDS011;7666;50.920;4.628;2023-02-11T16:35:06;44.37;;;32.70;;
15130;SDS011;7666;50.920;4.628;2023-02-11T16:37:56;40.63;;;30.23;;
15130;SDS011;7666;50.920;4.628;2023-02-11T16:40:42;43.00;;;32.07;;
15130;SDS011;7666;50.920;4.628;2023-02-11T16:43:30;43.03;;;31.77;;
15130;SDS011;7666;50.920;4.628;2023-02-11T16:46:16;40.37;;;31.80;;
15130;SDS011;7666;50.920;4.628;2023-02-11T16:49:08;49.63;;;34.63;;
15130;SDS011;7666;50.920;4.628;2023-02-11T16:52:13;46.67;;;33.90;;
15130;SDS011;7666;50.920;4.628;2023-02-11T16:55:01;46.33;;;33.77;;
15130;SDS011;7666;50.920;4.628;2023-02-11T16:57:47;47.57;;;34.40;;
15130;SDS011;7666;50.920;4.628;2023-02-11T17:00:33;46.23;;;33.13;;
15130;SDS011;7666;50.920;4.628;2023-02-11T17:03:21;46.57;;;34.30;;
15130;SDS011;7666;50.920;4.628;2023-02-11T17:06:09;47.57;;;35.37;;
15130;SDS011;7666;50.920;4.628;2023-02-11T17:08:57;46.57;;;34.77;;
15130;SDS011;7666;50.920;4.628;2023-02-11T17:11:43;51.27;;;35.93;;
15130;SDS011;7666;50.920;4.628;2023-02-11T17:14:29;54.73;;;36.63;;
15130;SDS011;7666;50.920;4.628;2023-02-11T17:17:16;47.60;;;37.10;;
15130;SDS011;7666;50.920;4.628;2023-02-11T17:20:02;48.30;;;35.63;;
15130;SDS011;7666;50.920;4.628;2023-02-11T17:22:48;48.03;;;36.57;;
15130;SDS011;7666;50.920;4.628;2023-02-11T17:25:35;47.70;;;35.33;;
15130;SDS011;7666;50.920;4.628;2023-02-11T17:28:21;47.20;;;36.57;;
15130;SDS011;7666;50.920;4.628;2023-02-11T17:31:07;47.10;;;35.83;;
15130;SDS011;7666;50.920;4.628;2023-02-11T17:33:54;51.30;;;36.27;;
15130;SDS011;7666;50.920;4.628;2023-02-11T17:36:40;50.23;;;37.30;;
15130;SDS011;7666;50.920;4.628;2023-02-11T17:39:26;46.83;;;37.43;;
15130;SDS011;7666;50.920;4.628;2023-02-11T17:42:12;45.60;;;36.77;;
15130;SDS011;7666;50.920;4.628;2023-02-11T17:44:59;46.47;;;35.87;;
15130;SDS011;7666;50.920;4.628;2023-02-11T17:47:45;50.60;;;36.47;;
15130;SDS011;7666;50.920;4.628;2023-02-11T17:50:36;47.03;;;37.00;;
15130;SDS011;7666;50.920;4.628;2023-02-11T17:53:22;45.07;;;35.50;;
15130;SDS011;7666;50.920;4.628;2023-02-11T17:56:08;46.93;;;35.60;;
15130;SDS011;7666;50.920;4.628;2023-02-11T17:58:54;45.50;;;35.00;;
15130;SDS011;7666;50.920;4.628;2023-02-11T18:01:40;46.87;;;34.80;;
15130;SDS011;7666;50.920;4.628;2023-02-11T18:04:27;48.97;;;38.33;;
15130;SDS011;7666;50.920;4.628;2023-02-11T18:07:13;46.10;;;36.20;;
15130;SDS011;7666;50.920;4.628;2023-02-11T18:09:59;44.93;;;34.53;;
15130;SDS011;7666;50.920;4.628;2023-02-11T18:12:45;46.17;;;36.57;;
15130;SDS011;7666;50.920;4.628;2023-02-11T18:15:32;48.30;;;36.77;;
15130;SDS011;7666;50.920;4.628;2023-02-11T18:18:18;44.83;;;34.97;;
15130;SDS011;7666;50.920;4.628;2023-02-11T18:21:04;46.40;;;36.03;;
15130;SDS011;7666;50.920;4.628;2023-02-11T18:23:53;49.17;;;37.30;;
15130;SDS011;7666;50.920;4.628;2023-02-11T18:26:41;46.03;;;36.33;;
15130;SDS011;7666;50.920;4.628;2023-02-11T18:29:27;48.07;;;36.77;;
15130;SDS011;7666;50.920;4.628;2023-02-11T18:32:13;46.97;;;36.43;;
15130;SDS011;7666;50.920;4.628;2023-02-11T18:34:59;49.30;;;36.60;;
15130;SDS011;7666;50.920;4.628;2023-02-11T18:37:45;45.93;;;35.23;;
15130;SDS011;7666;50.920;4.628;2023-02-11T18:40:31;48.40;;;36.97;;
15130;SDS011;7666;50.920;4.628;2023-02-11T18:43:18;42.77;;;33.60;;
15130;SDS011;7666;50.920;4.628;2023-02-11T18:46:06;45.10;;;35.10;;
15130;SDS011;7666;50.920;4.628;2023-02-11T18:48:53;46.47;;;34.77;;
15130;SDS011;7666;50.920;4.628;2023-02-11T18:51:39;43.37;;;34.20;;
15130;SDS011;7666;50.920;4.628;2023-02-11T18:54:25;44.60;;;35.00;;
15130;SDS011;7666;50.920;4.628;2023-02-11T18:57:11;52.33;;;38.43;;
15130;SDS011;7666;50.920;4.628;2023-02-11T18:59:57;53.00;;;38.03;;